Anchor, Texas
Current Conditions -  °F | °C
As of 9:53 AM on Thursday 30 Oct 2014 (Local Time) from KLBX Reporting Station
Overcast Overcast  
Wind Chill: 67°   Ceiling: 2400
Heat Index: 67°   Visibility: 10mi
Dew Point: 59°   Wind: 9mph
Humidity: 76%   Direction: 40°NE
Pressure: 30.13"   Gusts: NA
Location:  29.1898°N, 95.4754°W
Report Text: KLBX 301453Z AUTO 04008KT 10SM OVC024 19/15 A3013 RMK AO2 SLP201 T01940150 53012
Loading
Personal Weather Stations






























Interactive Weather Map New forecast layout! Learn more

10-Day Weather Forecast

Advertisements
Track Severe Weather on mobile